Аэропорт
Угольный (UHMA)

 UHMA / DYR
ЗЦ Хабаровск
Магадан (UHMM)
Магадан (UHMM)
 64.73490, 177.74100  / 194 ft

 UHMA 220530Z 02002MPS 350V050 CAVOK M25/M27 Q1005 R01/////// NOSIG RMK TDZ R01/02002G03MPS END R01/04001G03MPS QFE750/1000
 TAF UHMA 220159Z 2203/2303 34003G08MPS 5000 BR SCT006 SCT030 TEMPO 2203/2303 31007G13MPS 2100 BR DRSN SCT003 BKN020
UHMA_AIP_0217, UHMA_j_0220
показать схемы
Название сценария Тип сценария Flight Simulator 9 Flight Simulator X Prepar3D v2 Prepar3D v3 Prepar3D v4 xPlane
UHMA xPlane бесплатный
uhma-scenery-fs9-1003 бесплатный
uhma-scenery-fsx-1308 бесплатный
UHMA_P3D_v.4.4 бесплатный


2020 © VATRUS division (Privacy Policy)